This is the latest recevied weather packets stored in our database for station/object N9MXT-13. If no packets are shown the sender has not sent any weather packets the latest 10 day(s).
| Time | Temp. | Humidity | Pressure | Rain* | Wind** | Luminosity | Snow |
|---|---|---|---|---|---|---|---|
| 1777561799 | 10.56° C | 59% | 1016.6 hPa | 0 mm | - | - | - |
| 1777560000 | 8.89° C | 69% | 1016.8 hPa | 0 mm | - | - | - |
| 1777559699 | 8.89° C | 69% | 1016.9 hPa | 0 mm | - | - | - |
| 1777559399 | 8.89° C | 71% | 1016.9 hPa | 0 mm | - | - | - |
| 1777556399 | 6.67° C | 79% | 1016.8 hPa | 0 mm | - | - | - |
| 1777555498 | 6.11° C | 84% | 1016.9 hPa | 0 mm | - | - | - |
| 1777552499 | 3.89° C | 93% | 1016.8 hPa | 0 mm | - | - | - |
| 1777551900 | 3.33° C | 93% | 1016.7 hPa | 0 mm | - | - | - |
| 1777551299 | 3.33° C | 93% | 1016.8 hPa | 0 mm | - | - | - |
| 1777550099 | 3.33° C | 93% | 1016.8 hPa | 0 mm | - | - | - |
| 1777549499 | 2.78° C | 93% | 1016.8 hPa | 0 mm | - | - | - |
| 1777548000 | 2.78° C | 92% | 1016.7 hPa | 0 mm | - | - | - |
| 1777547099 | 2.22° C | 92% | 1016.6 hPa | 0 mm | - | - | - |
| 1777542299 | 2.78° C | 92% | 1016.3 hPa | 0 mm | - | - | - |
| 1777539899 | 2.78° C | 92% | 1016.4 hPa | 0 mm | - | - | - |
| 1777535099 | 3.33° C | 91% | 1016.4 hPa | 0 mm | - | - | - |
| 1777534500 | 3.33° C | 91% | 1016.4 hPa | 0 mm | - | - | - |
| 1777533300 | 3.33° C | 91% | 1016.5 hPa | 0 mm | - | - | - |
| 1777528803 | 3.33° C | 91% | 1016.8 hPa | 0 mm | - | - | - |
| 1777527900 | 3.89° C | 90% | 1016.9 hPa | 0 mm | - | - | - |
| 1777519799 | 5.56° C | 86% | 1016.9 hPa | 0 mm | - | - | - |
| 1777519500 | 5.56° C | 85% | 1016.9 hPa | 0 mm | - | - | - |
| 1777518901 | 5.56° C | 85% | 1016.9 hPa | 0 mm | - | - | - |
| 1777515601 | 6.67° C | 81% | 1017 hPa | 0 mm | - | - | - |
| 1777515001 | 7.22° C | 81% | 1017 hPa | 0 mm | - | - | - |
* Rain latest hour (hover to see other rain measurements)
** Current wind speed in m/s (hover to see current wind gust speed)